This is the latest recevied weather packets stored in our database for station/object KB2M. If no packets are shown the sender has not sent any weather packets the latest 10 day(s).
| Time | Temp. | Humidity | Pressure | Rain* | Wind** | Luminosity | Snow |
|---|---|---|---|---|---|---|---|
| 1787791749 | 26.11° C | 82% | 1018.2 hPa | 0 mm | - | - | - |
| 1787791119 | 26.11° C | 84% | 1018.2 hPa | 0 mm | - | - | - |
| 1787790519 | 26.11° C | 84% | 1018.2 hPa | 0 mm | - | - | - |
| 1787789889 | 26.67° C | 87% | 1018.2 hPa | 0 mm | - | - | - |
| 1787789259 | 26.67° C | 86% | 1017.9 hPa | 0 mm | - | - | - |
| 1787788659 | 26.67° C | 87% | 1017.9 hPa | 0 mm | - | - | - |
| 1787788029 | 26.67° C | 88% | 1017.6 hPa | 0 mm | - | - | - |
| 1787787399 | 27.22° C | 87% | 1017.6 hPa | 0 mm | - | - | - |
| 1787786799 | 27.22° C | 86% | 1017.2 hPa | 0 mm | - | - | - |
| 1787786199 | 27.22° C | 85% | 1017.6 hPa | 0 mm | - | - | - |
| 1787785569 | 27.22° C | 82% | 1017.2 hPa | 0 mm | - | - | - |
| 1787784969 | 27.22° C | 79% | 1017.2 hPa | 0 mm | - | - | - |
| 1787784369 | 27.78° C | 76% | 1017.2 hPa | 0 mm | - | - | - |
| 1787783740 | 27.78° C | 74% | 1016.9 hPa | 0 mm | - | - | - |
| 1787783139 | 27.78° C | 75% | 1017.2 hPa | 0 mm | - | - | - |
| 1787782510 | 27.22° C | 76% | 1016.9 hPa | 0 mm | - | - | - |
| 1787781879 | 26.67° C | 76% | 1016.5 hPa | 0 mm | - | - | - |
| 1787781279 | 27.22° C | 76% | 1016.5 hPa | 0 mm | - | - | - |
| 1787780680 | 27.78° C | 71% | 1017.2 hPa | 0 mm | - | - | - |
| 1787780050 | 27.78° C | 72% | 1017.2 hPa | 0 mm | - | - | - |
| 1787779420 | 27.22° C | 76% | 1017.2 hPa | 0 mm | - | - | - |
| 1787778790 | 26.11° C | 81% | 1017.2 hPa | 0 mm | - | - | - |
| 1787778190 | 25.56° C | 85% | 1017.9 hPa | 0 mm | - | - | - |
| 1787777590 | 25.56° C | 83% | 1017.6 hPa | 0 mm | - | - | - |
| 1787776990 | 25° C | 87% | 1017.2 hPa | 0 mm | - | - | - |
* Rain latest hour (hover to see other rain measurements)
** Current wind speed in m/s (hover to see current wind gust speed)